sensor_id;sensor_type;location;lat;lon;timestamp;pressure;altitude;pressure_sealevel;temperature;humidity
12178;BME280;6152;48.728;9.256;2023-02-15T00:01:42;98380.81;;;-0.29;100.00
12178;BME280;6152;48.728;9.256;2023-02-15T00:04:09;98385.09;;;-0.31;100.00
12178;BME280;6152;48.728;9.256;2023-02-15T00:06:36;98385.06;;;-0.33;100.00
12178;BME280;6152;48.728;9.256;2023-02-15T00:09:02;98384.22;;;-0.33;100.00
12178;BME280;6152;48.728;9.256;2023-02-15T00:11:29;98384.22;;;-0.36;100.00
12178;BME280;6152;48.728;9.256;2023-02-15T00:14:13;98374.81;;;-0.37;100.00
12178;BME280;6152;48.728;9.256;2023-02-15T00:16:42;98373.13;;;-0.38;100.00
12178;BME280;6152;48.728;9.256;2023-02-15T00:19:09;98368.03;;;-0.38;100.00
12178;BME280;6152;48.728;9.256;2023-02-15T00:21:37;98373.13;;;-0.38;100.00
12178;BME280;6152;48.728;9.256;2023-02-15T00:24:05;98366.31;;;-0.42;100.00
12178;BME280;6152;48.728;9.256;2023-02-15T00:26:32;98365.41;;;-0.44;100.00
12178;BME280;6152;48.728;9.256;2023-02-15T00:28:59;98371.41;;;-0.45;100.00
12178;BME280;6152;48.728;9.256;2023-02-15T00:31:26;98363.72;;;-0.47;100.00
12178;BME280;6152;48.728;9.256;2023-02-15T00:33:53;98362.84;;;-0.47;100.00
12178;BME280;6152;48.728;9.256;2023-02-15T00:36:19;98363.72;;;-0.48;100.00
12178;BME280;6152;48.728;9.256;2023-02-15T00:38:45;98359.47;;;-0.49;100.00
12178;BME280;6152;48.728;9.256;2023-02-15T00:41:11;98361.13;;;-0.52;100.00
12178;BME280;6152;48.728;9.256;2023-02-15T00:43:37;98361.13;;;-0.55;100.00
12178;BME280;6152;48.728;9.256;2023-02-15T00:46:05;98361.13;;;-0.55;100.00
12178;BME280;6152;48.728;9.256;2023-02-15T00:48:31;98361.97;;;-0.59;100.00
12178;BME280;6152;48.728;9.256;2023-02-15T00:50:59;98356.88;;;-0.60;100.00
12178;BME280;6152;48.728;9.256;2023-02-15T00:53:26;98361.13;;;-0.61;100.00
12178;BME280;6152;48.728;9.256;2023-02-15T00:55:52;98361.94;;;-0.65;100.00
12178;BME280;6152;48.728;9.256;2023-02-15T00:58:19;98357.72;;;-0.66;100.00
12178;BME280;6152;48.728;9.256;2023-02-15T01:00:47;98357.72;;;-0.66;100.00
12178;BME280;6152;48.728;9.256;2023-02-15T01:03:14;98361.97;;;-0.66;100.00
12178;BME280;6152;48.728;9.256;2023-02-15T01:05:41;98355.16;;;-0.66;100.00
12178;BME280;6152;48.728;9.256;2023-02-15T01:08:07;98357.69;;;-0.64;100.00
12178;BME280;6152;48.728;9.256;2023-02-15T01:10:34;98357.72;;;-0.66;100.00
12178;BME280;6152;48.728;9.256;2023-02-15T01:13:01;98361.09;;;-0.65;100.00
12178;BME280;6152;48.728;9.256;2023-02-15T01:15:27;98351.72;;;-0.65;100.00
12178;BME280;6152;48.728;9.256;2023-02-15T01:17:54;98356.00;;;-0.64;100.00
12178;BME280;6152;48.728;9.256;2023-02-15T01:20:26;98353.44;;;-0.67;100.00
12178;BME280;6152;48.728;9.256;2023-02-15T01:22:53;98364.50;;;-0.65;100.00
12178;BME280;6152;48.728;9.256;2023-02-15T01:25:21;98355.13;;;-0.67;100.00
12178;BME280;6152;48.728;9.256;2023-02-15T01:27:47;98353.41;;;-0.68;100.00
12178;BME280;6152;48.728;9.256;2023-02-15T01:30:14;98349.16;;;-0.71;100.00
12178;BME280;6152;48.728;9.256;2023-02-15T01:32:41;98354.25;;;-0.72;100.00
12178;BME280;6152;48.728;9.256;2023-02-15T01:35:08;98347.44;;;-0.75;100.00
12178;BME280;6152;48.728;9.256;2023-02-15T01:37:35;98345.72;;;-0.76;100.00
12178;BME280;6152;48.728;9.256;2023-02-15T01:40:02;98344.03;;;-0.74;100.00
12178;BME280;6152;48.728;9.256;2023-02-15T01:42:29;98342.31;;;-0.78;100.00
12178;BME280;6152;48.728;9.256;2023-02-15T01:44:58;98347.44;;;-0.78;100.00
12178;BME280;6152;48.728;9.256;2023-02-15T01:50:32;98344.84;;;-0.82;100.00
12178;BME280;6152;48.728;9.256;2023-02-15T01:55:43;98342.31;;;-0.84;100.00
12178;BME280;6152;48.728;9.256;2023-02-15T01:58:11;98342.31;;;-0.84;100.00
12178;BME280;6152;48.728;9.256;2023-02-15T02:00:38;98341.44;;;-0.84;100.00
12178;BME280;6152;48.728;9.256;2023-02-15T02:03:04;98342.28;;;-0.87;100.00
12178;BME280;6152;48.728;9.256;2023-02-15T02:05:31;98338.00;;;-0.89;100.00
12178;BME280;6152;48.728;9.256;2023-02-15T02:08:00;98339.72;;;-0.91;100.00
12178;BME280;6152;48.728;9.256;2023-02-15T02:10:27;98333.72;;;-0.95;100.00
12178;BME280;6152;48.728;9.256;2023-02-15T02:12:56;98331.19;;;-0.95;100.00
12178;BME280;6152;48.728;9.256;2023-02-15T02:15:37;98331.16;;;-0.96;100.00
12178;BME280;6152;48.728;9.256;2023-02-15T02:43:50;98313.22;;;-1.10;100.00
12178;BME280;6152;48.728;9.256;2023-02-15T02:46:46;98324.31;;;-1.11;100.00
12178;BME280;6152;48.728;9.256;2023-02-15T02:49:14;98316.63;;;-1.14;100.00
12178;BME280;6152;48.728;9.256;2023-02-15T02:51:40;98314.03;;;-1.17;100.00
12178;BME280;6152;48.728;9.256;2023-02-15T02:54:07;98312.34;;;-1.21;100.00
12178;BME280;6152;48.728;9.256;2023-02-15T02:56:47;98318.28;;;-1.22;100.00
12178;BME280;6152;48.728;9.256;2023-02-15T02:59:20;98317.41;;;-1.26;100.00
12178;BME280;6152;48.728;9.256;2023-02-15T03:01:57;98315.69;;;-1.28;100.00
12178;BME280;6152;48.728;9.256;2023-02-15T03:04:31;98316.53;;;-1.32;100.00
12178;BME280;6152;48.728;9.256;2023-02-15T03:07:01;98315.66;;;-1.36;100.00
12178;BME280;6152;48.728;9.256;2023-02-15T03:09:33;98313.94;;;-1.40;100.00
12178;BME280;6152;48.728;9.256;2023-02-15T03:12:17;98313.94;;;-1.40;100.00
12178;BME280;6152;48.728;9.256;2023-02-15T03:14:56;98314.75;;;-1.44;100.00
12178;BME280;6152;48.728;9.256;2023-02-15T03:17:28;98307.94;;;-1.46;100.00
12178;BME280;6152;48.728;9.256;2023-02-15T03:19:59;98307.09;;;-1.48;100.00
12178;BME280;6152;48.728;9.256;2023-02-15T03:22:38;98308.78;;;-1.47;100.00
12178;BME280;6152;48.728;9.256;2023-02-15T03:25:16;98303.66;;;-1.47;100.00
12178;BME280;6152;48.728;9.256;2023-02-15T03:27:47;98307.94;;;-1.46;100.00
12178;BME280;6152;48.728;9.256;2023-02-15T03:30:17;98309.63;;;-1.48;100.00
12178;BME280;6152;48.728;9.256;2023-02-15T03:32:48;98315.56;;;-1.49;100.00
12178;BME280;6152;48.728;9.256;2023-02-15T03:35:16;98307.91;;;-1.52;100.00
12178;BME280;6152;48.728;9.256;2023-02-15T03:37:47;98309.56;;;-1.55;100.00
12178;BME280;6152;48.728;9.256;2023-02-15T03:40:26;98309.56;;;-1.55;100.00
12178;BME280;6152;48.728;9.256;2023-02-15T03:46:32;98308.69;;;-1.61;100.00
12178;BME280;6152;48.728;9.256;2023-02-15T03:52:06;98303.59;;;-1.61;100.00
12178;BME280;6152;48.728;9.256;2023-02-15T03:54:35;98305.25;;;-1.65;100.00
12178;BME280;6152;48.728;9.256;2023-02-15T03:57:17;98310.38;;;-1.66;100.00
12178;BME280;6152;48.728;9.256;2023-02-15T04:05:38;98302.66;;;-1.74;100.00
12178;BME280;6152;48.728;9.256;2023-02-15T04:08:04;98310.28;;;-1.75;100.00
12178;BME280;6152;48.728;9.256;2023-02-15T04:10:30;98297.56;;;-1.74;100.00
12178;BME280;6152;48.728;9.256;2023-02-15T04:13:15;98303.47;;;-1.78;100.00
12178;BME280;6152;48.728;9.256;2023-02-15T04:15:41;98300.91;;;-1.81;100.00
12178;BME280;6152;48.728;9.256;2023-02-15T04:18:26;98302.56;;;-1.86;100.00
12178;BME280;6152;48.728;9.256;2023-02-15T04:21:10;98298.31;;;-1.90;100.00
12178;BME280;6152;48.728;9.256;2023-02-15T04:23:55;98289.72;;;-1.96;100.00
12178;BME280;6152;48.728;9.256;2023-02-15T04:26:39;98303.34;;;-1.94;100.00
12178;BME280;6152;48.728;9.256;2023-02-15T04:29:05;98300.78;;;-1.96;100.00
12178;BME280;6152;48.728;9.256;2023-02-15T04:31:32;98293.13;;;-1.96;100.00
12178;BME280;6152;48.728;9.256;2023-02-15T04:33:58;98291.44;;;-1.95;100.00
12178;BME280;6152;48.728;9.256;2023-02-15T04:36:24;98294.84;;;-1.95;100.00
12178;BME280;6152;48.728;9.256;2023-02-15T04:38:50;98294.00;;;-1.97;100.00
12178;BME280;6152;48.728;9.256;2023-02-15T04:41:16;98289.72;;;-1.98;100.00
12178;BME280;6152;48.728;9.256;2023-02-15T04:43:42;98290.56;;;-2.00;100.00
12178;BME280;6152;48.728;9.256;2023-02-15T04:46:08;98288.03;;;-2.00;100.00
12178;BME280;6152;48.728;9.256;2023-02-15T04:48:34;98283.78;;;-2.00;100.00
12178;BME280;6152;48.728;9.256;2023-02-15T04:51:06;98265.84;;;-2.11;100.00
12178;BME280;6152;48.728;9.256;2023-02-15T04:53:33;98278.69;;;-1.97;100.00
12178;BME280;6152;48.728;9.256;2023-02-15T04:55:59;98283.81;;;-1.97;100.00
12178;BME280;6152;48.728;9.256;2023-02-15T04:58:25;98280.38;;;-1.96;100.00
12178;BME280;6152;48.728;9.256;2023-02-15T05:00:51;98277.84;;;-1.94;100.00
12178;BME280;6152;48.728;9.256;2023-02-15T05:03:17;98269.31;;;-1.98;100.00
12178;BME280;6152;48.728;9.256;2023-02-15T05:05:43;98271.03;;;-2.00;100.00
12178;BME280;6152;48.728;9.256;2023-02-15T05:08:09;98268.47;;;-2.00;100.00
12178;BME280;6152;48.728;9.256;2023-02-15T05:10:35;98271.88;;;-1.98;100.00
12178;BME280;6152;48.728;9.256;2023-02-15T05:13:01;98263.41;;;-1.97;100.00
12178;BME280;6152;48.728;9.256;2023-02-15T05:15:27;98265.91;;;-1.98;100.00
12178;BME280;6152;48.728;9.256;2023-02-15T05:17:54;98256.56;;;-2.01;100.00
12178;BME280;6152;48.728;9.256;2023-02-15T05:20:20;98269.34;;;-1.95;100.00
12178;BME280;6152;48.728;9.256;2023-02-15T05:22:46;98268.47;;;-2.00;100.00
12178;BME280;6152;48.728;9.256;2023-02-15T05:25:12;98276.09;;;-2.05;100.00
12178;BME280;6152;48.728;9.256;2023-02-15T05:27:56;98272.66;;;-2.07;100.00
12178;BME280;6152;48.728;9.256;2023-02-15T05:30:41;98275.19;;;-2.10;100.00
12178;BME280;6152;48.728;9.256;2023-02-15T05:33:08;98276.84;;;-2.13;100.00
12178;BME280;6152;48.728;9.256;2023-02-15T05:35:35;98285.38;;;-2.11;100.00
12178;BME280;6152;48.728;9.256;2023-02-15T05:38:01;98288.78;;;-2.09;100.00
12178;BME280;6152;48.728;9.256;2023-02-15T05:40:27;98282.03;;;-2.07;100.00
12178;BME280;6152;48.728;9.256;2023-02-15T05:42:53;98283.69;;;-2.09;100.00
12178;BME280;6152;48.728;9.256;2023-02-15T05:45:19;98288.78;;;-2.09;100.00
12178;BME280;6152;48.728;9.256;2023-02-15T05:47:45;98291.34;;;-2.09;100.00
12178;BME280;6152;48.728;9.256;2023-02-15T05:50:11;98284.53;;;-2.10;100.00
12178;BME280;6152;48.728;9.256;2023-02-15T05:52:38;98280.31;;;-2.08;100.00
12178;BME280;6152;48.728;9.256;2023-02-15T05:55:05;98280.31;;;-2.07;100.00
12178;BME280;6152;48.728;9.256;2023-02-15T05:57:31;98278.59;;;-2.09;100.00
12178;BME280;6152;48.728;9.256;2023-02-15T05:59:57;98276.03;;;-2.12;100.00
12178;BME280;6152;48.728;9.256;2023-02-15T06:02:23;98275.16;;;-2.13;100.00
12178;BME280;6152;48.728;9.256;2023-02-15T06:04:49;98279.38;;;-2.16;100.00
12178;BME280;6152;48.728;9.256;2023-02-15T06:07:15;98275.09;;;-2.17;100.00
12178;BME280;6152;48.728;9.256;2023-02-15T06:09:42;98272.56;;;-2.17;100.00
12178;BME280;6152;48.728;9.256;2023-02-15T06:12:08;98277.69;;;-2.16;100.00
12178;BME280;6152;48.728;9.256;2023-02-15T06:14:34;98279.41;;;-2.15;100.00
12178;BME280;6152;48.728;9.256;2023-02-15T06:17:00;98287.88;;;-2.16;100.00
12178;BME280;6152;48.728;9.256;2023-02-15T06:19:26;98293.81;;;-2.18;100.00
12178;BME280;6152;48.728;9.256;2023-02-15T06:21:52;98298.03;;;-2.20;100.00
12178;BME280;6152;48.728;9.256;2023-02-15T06:24:18;98302.31;;;-2.19;100.00
12178;BME280;6152;48.728;9.256;2023-02-15T06:26:44;98299.75;;;-2.19;100.00
12178;BME280;6152;48.728;9.256;2023-02-15T06:29:10;98304.84;;;-2.19;100.00
12178;BME280;6152;48.728;9.256;2023-02-15T06:31:36;98309.09;;;-2.21;100.00
12178;BME280;6152;48.728;9.256;2023-02-15T06:34:02;98308.25;;;-2.22;100.00
12178;BME280;6152;48.728;9.256;2023-02-15T06:36:29;98310.75;;;-2.23;100.00
12178;BME280;6152;48.728;9.256;2023-02-15T06:38:56;98308.25;;;-2.22;100.00
12178;BME280;6152;48.728;9.256;2023-02-15T06:41:22;98310.78;;;-2.20;100.00
12178;BME280;6152;48.728;9.256;2023-02-15T06:43:49;98313.34;;;-2.17;100.00
12178;BME280;6152;48.728;9.256;2023-02-15T06:46:15;98305.72;;;-2.17;100.00
12178;BME280;6152;48.728;9.256;2023-02-15T06:48:41;98305.75;;;-2.14;100.00
12178;BME280;6152;48.728;9.256;2023-02-15T06:51:08;98315.97;;;-2.14;100.00
12178;BME280;6152;48.728;9.256;2023-02-15T06:53:34;98313.44;;;-2.11;100.00
12178;BME280;6152;48.728;9.256;2023-02-15T06:56:06;98310.03;;;-2.09;100.00
12178;BME280;6152;48.728;9.256;2023-02-15T06:58:36;98313.44;;;-2.10;100.00
12178;BME280;6152;48.728;9.256;2023-02-15T07:01:03;98311.75;;;-2.08;100.00
12178;BME280;6152;48.728;9.256;2023-02-15T07:03:30;98311.75;;;-2.08;100.00
12178;BME280;6152;48.728;9.256;2023-02-15T07:05:57;98314.31;;;-2.03;100.00
12178;BME280;6152;48.728;9.256;2023-02-15T07:08:24;98316.94;;;-2.00;100.00
12178;BME280;6152;48.728;9.256;2023-02-15T07:10:51;98316.09;;;-1.96;100.00
12178;BME280;6152;48.728;9.256;2023-02-15T07:13:18;98316.16;;;-1.90;100.00
12178;BME280;6152;48.728;9.256;2023-02-15T07:15:45;98323.00;;;-1.83;100.00
12178;BME280;6152;48.728;9.256;2023-02-15T07:18:14;98323.06;;;-1.77;100.00
12178;BME280;6152;48.728;9.256;2023-02-15T07:20:43;98323.06;;;-1.74;100.00
12178;BME280;6152;48.728;9.256;2023-02-15T07:23:09;98323.09;;;-1.71;100.00
12178;BME280;6152;48.728;9.256;2023-02-15T07:25:35;98326.53;;;-1.66;100.00
12178;BME280;6152;48.728;9.256;2023-02-15T07:28:03;98324.88;;;-1.58;100.00
12178;BME280;6152;48.728;9.256;2023-02-15T07:30:50;98330.88;;;-1.51;100.00
12178;BME280;6152;48.728;9.256;2023-02-15T07:33:36;98332.63;;;-1.45;100.00
12178;BME280;6152;48.728;9.256;2023-02-15T07:36:04;98329.25;;;-1.38;100.00
12178;BME280;6152;48.728;9.256;2023-02-15T07:38:32;98332.72;;;-1.32;100.00
12178;BME280;6152;48.728;9.256;2023-02-15T07:41:10;98337.00;;;-1.23;100.00
12178;BME280;6152;48.728;9.256;2023-02-15T07:43:39;98316.59;;;-1.17;100.00
12178;BME280;6152;48.728;9.256;2023-02-15T07:46:09;98315.78;;;-1.12;100.00
12178;BME280;6152;48.728;9.256;2023-02-15T07:48:36;98316.66;;;-1.05;100.00
12178;BME280;6152;48.728;9.256;2023-02-15T07:51:04;98304.75;;;-0.98;100.00
12178;BME280;6152;48.728;9.256;2023-02-15T07:53:31;98309.91;;;-0.88;100.00
12178;BME280;6152;48.728;9.256;2023-02-15T07:56:10;98311.66;;;-0.78;100.00
12178;BME280;6152;48.728;9.256;2023-02-15T07:58:38;98298.06;;;-0.68;100.00
12178;BME280;6152;48.728;9.256;2023-02-15T08:01:20;98299.78;;;-0.58;100.00
12178;BME280;6152;48.728;9.256;2023-02-15T08:03:47;98313.44;;;-0.49;100.00
12178;BME280;6152;48.728;9.256;2023-02-15T08:06:13;98307.50;;;-0.42;100.00
12178;BME280;6152;48.728;9.256;2023-02-15T08:08:40;98311.75;;;-0.41;100.00
12178;BME280;6152;48.728;9.256;2023-02-15T08:11:18;98308.38;;;-0.28;100.00
12178;BME280;6152;48.728;9.256;2023-02-15T08:14:05;98311.78;;;-0.14;100.00
12178;BME280;6152;48.728;9.256;2023-02-15T08:16:37;98312.63;;;-0.06;100.00
12178;BME280;6152;48.728;9.256;2023-02-15T08:19:12;98314.34;;;0.01;100.00
12178;BME280;6152;48.728;9.256;2023-02-15T08:21:41;98320.31;;;0.09;100.00
12178;BME280;6152;48.728;9.256;2023-02-15T08:24:10;98323.75;;;0.20;100.00
12178;BME280;6152;48.728;9.256;2023-02-15T08:26:37;98320.31;;;0.39;100.00
12178;BME280;6152;48.728;9.256;2023-02-15T08:29:04;98313.47;;;0.50;100.00
12178;BME280;6152;48.728;9.256;2023-02-15T08:31:32;98321.09;;;0.66;100.00
12178;BME280;6152;48.728;9.256;2023-02-15T08:33:59;98320.25;;;0.79;100.00
12178;BME280;6152;48.728;9.256;2023-02-15T08:36:27;98318.47;;;0.91;100.00
12178;BME280;6152;48.728;9.256;2023-02-15T08:38:57;98316.69;;;1.07;100.00
12178;BME280;6152;48.728;9.256;2023-02-15T08:41:25;98315.81;;;1.20;100.00
12178;BME280;6152;48.728;9.256;2023-02-15T08:43:56;98312.31;;;1.35;100.00
12178;BME280;6152;48.728;9.256;2023-02-15T08:46:25;98313.09;;;1.50;100.00
12178;BME280;6152;48.728;9.256;2023-02-15T08:48:51;98320.72;;;1.64;100.00
12178;BME280;6152;48.728;9.256;2023-02-15T08:51:40;98321.44;;;1.80;100.00
12178;BME280;6152;48.728;9.256;2023-02-15T08:54:08;98318.03;;;1.81;100.00
12178;BME280;6152;48.728;9.256;2023-02-15T08:56:40;98314.56;;;1.88;100.00
12178;BME280;6152;48.728;9.256;2023-02-15T08:59:10;98315.28;;;2.03;100.00
12178;BME280;6152;48.728;9.256;2023-02-15T09:01:37;98314.28;;;2.21;100.00
12178;BME280;6152;48.728;9.256;2023-02-15T09:04:05;98309.16;;;2.21;100.00
12178;BME280;6152;48.728;9.256;2023-02-15T09:06:34;98307.28;;;2.38;100.00
12178;BME280;6152;48.728;9.256;2023-02-15T09:09:01;98313.09;;;2.60;100.00
12178;BME280;6152;48.728;9.256;2023-02-15T09:11:30;98311.19;;;2.77;100.00
12178;BME280;6152;48.728;9.256;2023-02-15T09:16:25;98306.47;;;3.17;100.00
12178;BME280;6152;48.728;9.256;2023-02-15T09:18:52;98298.78;;;3.14;100.00
12178;BME280;6152;48.728;9.256;2023-02-15T09:21:21;98291.72;;;3.30;100.00
12178;BME280;6152;48.728;9.256;2023-02-15T09:23:50;98288.06;;;3.47;100.00
12178;BME280;6152;48.728;9.256;2023-02-15T09:26:19;98293.53;;;3.83;100.00
12178;BME280;6152;48.728;9.256;2023-02-15T09:28:46;98296.41;;;4.18;100.00
12178;BME280;6152;48.728;9.256;2023-02-15T09:31:18;98289.00;;;4.50;100.00
12178;BME280;6152;48.728;9.256;2023-02-15T09:33:45;98283.41;;;4.75;100.00
12178;BME280;6152;48.728;9.256;2023-02-15T09:39:03;98289.22;;;5.69;100.00
12178;BME280;6152;48.728;9.256;2023-02-15T10:03:40;98237.66;;;19.73;37.82
12178;BME280;6152;48.728;9.256;2023-02-15T10:06:28;98230.94;;;19.13;35.27
12178;BME280;6152;48.728;9.256;2023-02-15T10:12:11;98225.56;;;18.80;38.24
12178;BME280;6152;48.728;9.256;2023-02-15T10:15:02;98219.16;;;19.84;35.28
12178;BME280;6152;48.728;9.256;2023-02-15T10:26:31;98204.97;;;22.11;28.84
12178;BME280;6152;48.728;9.256;2023-02-15T10:31:54;98198.59;;;24.09;26.36
12178;BME280;6152;48.728;9.256;2023-02-15T10:34:25;98194.63;;;25.35;26.48
12178;BME280;6152;48.728;9.256;2023-02-15T10:55:11;98167.13;;;24.57;24.83
12178;BME280;6152;48.728;9.256;2023-02-15T11:00:33;98157.59;;;26.73;23.27
12178;BME280;6152;48.728;9.256;2023-02-15T11:08:15;98143.94;;;26.84;21.82
12178;BME280;6152;48.728;9.256;2023-02-15T11:10:51;98148.03;;;25.97;22.04
12178;BME280;6152;48.728;9.256;2023-02-15T11:13:22;98147.28;;;24.78;23.44
12178;BME280;6152;48.728;9.256;2023-02-15T11:15:56;98141.22;;;26.03;22.88
12178;BME280;6152;48.728;9.256;2023-02-15T11:18:36;98138.69;;;27.06;22.41
12178;BME280;6152;48.728;9.256;2023-02-15T11:23:54;98123.59;;;28.68;21.32
12178;BME280;6152;48.728;9.256;2023-02-15T11:26:36;98127.16;;;29.41;20.13
12178;BME280;6152;48.728;9.256;2023-02-15T11:29:28;98120.31;;;29.89;19.74
12178;BME280;6152;48.728;9.256;2023-02-15T11:42:55;98116.38;;;31.80;17.39
12178;BME280;6152;48.728;9.256;2023-02-15T11:47:51;98108.19;;;30.57;18.71
12178;BME280;6152;48.728;9.256;2023-02-15T11:50:25;98107.78;;;31.09;18.73
12178;BME280;6152;48.728;9.256;2023-02-15T11:52:52;98104.81;;;31.38;18.53
12178;BME280;6152;48.728;9.256;2023-02-15T11:55:22;98104.63;;;31.46;17.77
12178;BME280;6152;48.728;9.256;2023-02-15T11:58:03;98097.44;;;31.13;18.25
12178;BME280;6152;48.728;9.256;2023-02-15T12:00:35;98110.50;;;31.57;18.44
12178;BME280;6152;48.728;9.256;2023-02-15T12:03:26;98112.81;;;32.27;17.90
12178;BME280;6152;48.728;9.256;2023-02-15T12:05:58;98107.19;;;32.15;17.42
12178;BME280;6152;48.728;9.256;2023-02-15T12:08:36;98102.81;;;32.27;17.44
12178;BME280;6152;48.728;9.256;2023-02-15T12:11:15;98101.63;;;32.63;17.29
12178;BME280;6152;48.728;9.256;2023-02-15T12:16:21;98096.47;;;31.20;18.12
12178;BME280;6152;48.728;9.256;2023-02-15T12:18:48;98098.00;;;31.01;17.72
12178;BME280;6152;48.728;9.256;2023-02-15T12:21:30;98101.13;;;31.46;17.74
12178;BME280;6152;48.728;9.256;2023-02-15T12:24:03;98096.28;;;31.28;17.58
12178;BME280;6152;48.728;9.256;2023-02-15T12:26:35;98088.59;;;30.91;18.23
12178;BME280;6152;48.728;9.256;2023-02-15T12:29:17;98083.00;;;30.37;18.42
12178;BME280;6152;48.728;9.256;2023-02-15T12:31:51;98077.56;;;30.86;18.18
12178;BME280;6152;48.728;9.256;2023-02-15T12:34:31;98080.84;;;30.75;18.22
12178;BME280;6152;48.728;9.256;2023-02-15T12:37:02;98077.16;;;30.82;18.57
12178;BME280;6152;48.728;9.256;2023-02-15T12:39:33;98078.06;;;30.62;18.98
12178;BME280;6152;48.728;9.256;2023-02-15T12:42:13;98069.94;;;30.89;18.34
12178;BME280;6152;48.728;9.256;2023-02-15T12:47:20;98080.09;;;30.60;18.18
12178;BME280;6152;48.728;9.256;2023-02-15T12:50:07;98082.06;;;30.02;19.00
12178;BME280;6152;48.728;9.256;2023-02-15T12:52:35;98074.63;;;30.46;18.78
12178;BME280;6152;48.728;9.256;2023-02-15T12:57:47;98056.88;;;30.03;18.98
12178;BME280;6152;48.728;9.256;2023-02-15T13:02:48;98063.59;;;29.92;19.05
12178;BME280;6152;48.728;9.256;2023-02-15T13:05:38;98054.66;;;29.71;19.05
12178;BME280;6152;48.728;9.256;2023-02-15T13:08:21;98054.75;;;29.12;19.46
12178;BME280;6152;48.728;9.256;2023-02-15T13:13:32;98043.69;;;26.96;21.55
12178;BME280;6152;48.728;9.256;2023-02-15T13:16:11;98038.53;;;25.41;22.83
12178;BME280;6152;48.728;9.256;2023-02-15T13:18:44;98034.34;;;23.13;25.27
12178;BME280;6152;48.728;9.256;2023-02-15T13:21:20;98030.19;;;21.31;27.68
12178;BME280;6152;48.728;9.256;2023-02-15T13:23:51;98020.41;;;20.01;29.22
12178;BME280;6152;48.728;9.256;2023-02-15T13:26:21;98036.00;;;19.08;30.69
12178;BME280;6152;48.728;9.256;2023-02-15T13:28:55;98032.63;;;17.83;32.44
12178;BME280;6152;48.728;9.256;2023-02-15T13:31:25;98035.69;;;16.82;34.36
12178;BME280;6152;48.728;9.256;2023-02-15T13:39:40;98027.41;;;15.47;38.17
12178;BME280;6152;48.728;9.256;2023-02-15T13:42:37;98033.78;;;15.83;37.71
12178;BME280;6152;48.728;9.256;2023-02-15T13:47:49;98030.25;;;16.09;37.39
12178;BME280;6152;48.728;9.256;2023-02-15T13:50:29;98018.16;;;15.81;38.11
12178;BME280;6152;48.728;9.256;2023-02-15T13:53:17;98020.56;;;15.18;38.87
12178;BME280;6152;48.728;9.256;2023-02-15T14:01:58;98023.00;;;13.51;43.05
12178;BME280;6152;48.728;9.256;2023-02-15T14:04:50;98027.34;;;13.21;43.99
12178;BME280;6152;48.728;9.256;2023-02-15T14:13:02;98024.81;;;12.57;47.35
12178;BME280;6152;48.728;9.256;2023-02-15T14:16:33;98031.09;;;12.37;49.70
12178;BME280;6152;48.728;9.256;2023-02-15T14:18:41;98027.34;;;12.26;50.32
12178;BME280;6152;48.728;9.256;2023-02-15T14:21:27;98018.56;;;12.11;51.19
12178;BME280;6152;48.728;9.256;2023-02-15T14:24:17;98024.44;;;11.99;51.11
12178;BME280;6152;48.728;9.256;2023-02-15T14:29:52;98028.13;;;11.95;52.66
12178;BME280;6152;48.728;9.256;2023-02-15T14:32:39;98021.34;;;11.91;52.29
12178;BME280;6152;48.728;9.256;2023-02-15T14:35:16;98029.66;;;11.99;52.70
12178;BME280;6152;48.728;9.256;2023-02-15T14:37:58;98025.56;;;11.93;52.73
12178;BME280;6152;48.728;9.256;2023-02-15T14:43:39;98033.00;;;12.01;53.44
12178;BME280;6152;48.728;9.256;2023-02-15T14:49:16;98032.13;;;11.85;54.41
12178;BME280;6152;48.728;9.256;2023-02-15T14:59:37;98030.72;;;11.60;56.38
12178;BME280;6152;48.728;9.256;2023-02-15T15:02:13;98029.91;;;11.58;56.59
12178;BME280;6152;48.728;9.256;2023-02-15T15:07:27;98034.22;;;11.42;56.67
12178;BME280;6152;48.728;9.256;2023-02-15T15:10:03;98029.16;;;11.39;57.19
12178;BME280;6152;48.728;9.256;2023-02-15T15:14:58;98040.97;;;11.29;57.52
12178;BME280;6152;48.728;9.256;2023-02-15T15:20:05;98039.06;;;11.14;59.12
12178;BME280;6152;48.728;9.256;2023-02-15T15:22:36;98040.06;;;11.11;60.14
12178;BME280;6152;48.728;9.256;2023-02-15T15:27:52;98034.16;;;11.08;61.78
12178;BME280;6152;48.728;9.256;2023-02-15T15:48:50;98032.03;;;10.61;62.48
12178;BME280;6152;48.728;9.256;2023-02-15T15:51:26;98036.75;;;10.53;63.12
12178;BME280;6152;48.728;9.256;2023-02-15T15:53:55;98038.84;;;10.45;63.96
12178;BME280;6152;48.728;9.256;2023-02-15T15:56:34;98037.38;;;10.40;65.13
12178;BME280;6152;48.728;9.256;2023-02-15T15:59:23;98037.00;;;10.29;65.91
12178;BME280;6152;48.728;9.256;2023-02-15T16:01:50;98043.19;;;10.26;67.33
12178;BME280;6152;48.728;9.256;2023-02-15T16:04:29;98033.50;;;10.09;67.57
12178;BME280;6152;48.728;9.256;2023-02-15T16:09:40;98038.97;;;9.83;72.08
12178;BME280;6152;48.728;9.256;2023-02-15T16:12:14;98035.22;;;9.70;72.50
12178;BME280;6152;48.728;9.256;2023-02-15T16:14:42;98027.72;;;9.62;73.55
12178;BME280;6152;48.728;9.256;2023-02-15T16:17:20;98028.38;;;9.47;72.97
12178;BME280;6152;48.728;9.256;2023-02-15T16:19:48;98038.41;;;9.35;74.45
12178;BME280;6152;48.728;9.256;2023-02-15T16:22:22;98042.25;;;9.26;75.69
12178;BME280;6152;48.728;9.256;2023-02-15T16:25:24;98032.47;;;9.11;76.88
12178;BME280;6152;48.728;9.256;2023-02-15T16:27:55;98046.00;;;8.97;79.09
12178;BME280;6152;48.728;9.256;2023-02-15T16:30:33;98047.22;;;8.89;81.15
12178;BME280;6152;48.728;9.256;2023-02-15T16:33:08;98051.16;;;8.76;83.40
12178;BME280;6152;48.728;9.256;2023-02-15T16:35:37;98055.13;;;8.62;85.51
12178;BME280;6152;48.728;9.256;2023-02-15T16:38:04;98056.50;;;8.49;87.62
12178;BME280;6152;48.728;9.256;2023-02-15T16:40:39;98061.03;;;8.44;91.52
12178;BME280;6152;48.728;9.256;2023-02-15T16:43:15;98060.69;;;8.30;92.25
12178;BME280;6152;48.728;9.256;2023-02-15T16:45:42;98060.06;;;8.22;94.45
12178;BME280;6152;48.728;9.256;2023-02-15T16:48:21;98065.41;;;8.18;94.95
12178;BME280;6152;48.728;9.256;2023-02-15T16:50:55;98060.72;;;8.04;96.28
12178;BME280;6152;48.728;9.256;2023-02-15T16:53:26;98063.78;;;7.90;95.86
12178;BME280;6152;48.728;9.256;2023-02-15T16:55:55;98059.94;;;7.77;96.30
12178;BME280;6152;48.728;9.256;2023-02-15T17:01:01;98072.75;;;7.55;97.47